sensor_id;sensor_type;location;lat;lon;timestamp;pressure;altitude;pressure_sealevel;temperature;humidity
48386;BME280;34644;47.964;7.982;2023-02-20T00:03:24;97833.94;;;15.54;70.90
48386;BME280;34644;47.964;7.982;2023-02-20T00:10:24;97836.59;;;15.54;70.62
48386;BME280;34644;47.964;7.982;2023-02-20T00:17:25;97845.63;;;15.53;71.10
48386;BME280;34644;47.964;7.982;2023-02-20T00:24:27;97835.72;;;15.48;71.00
48386;BME280;34644;47.964;7.982;2023-02-20T00:31:27;97831.44;;;15.47;71.09
48386;BME280;34644;47.964;7.982;2023-02-20T00:38:28;97822.66;;;15.47;70.87
48386;BME280;34644;47.964;7.982;2023-02-20T00:45:28;97828.22;;;15.45;70.64
48386;BME280;34644;47.964;7.982;2023-02-20T00:52:29;97820.72;;;15.42;70.61
48386;BME280;34644;47.964;7.982;2023-02-20T00:59:29;97823.13;;;15.44;70.65
48386;BME280;34644;47.964;7.982;2023-02-20T01:06:29;97837.78;;;15.46;70.51
48386;BME280;34644;47.964;7.982;2023-02-20T01:13:30;97839.63;;;15.46;70.43
48386;BME280;34644;47.964;7.982;2023-02-20T01:20:30;97839.88;;;15.44;70.38
48386;BME280;34644;47.964;7.982;2023-02-20T01:27:30;97818.63;;;15.44;69.96
48386;BME280;34644;47.964;7.982;2023-02-20T01:34:33;97820.72;;;15.42;70.28
48386;BME280;34644;47.964;7.982;2023-02-20T01:41:33;97834.22;;;15.41;70.31
48386;BME280;34644;47.964;7.982;2023-02-20T01:48:34;97828.91;;;15.41;70.12
48386;BME280;34644;47.964;7.982;2023-02-20T02:02:48;97830.19;;;15.38;70.07
48386;BME280;34644;47.964;7.982;2023-02-20T02:10:10;97818.28;;;15.41;70.03
48386;BME280;34644;47.964;7.982;2023-02-20T02:17:24;97810.78;;;15.37;69.91
48386;BME280;34644;47.964;7.982;2023-02-20T02:31:51;97807.56;;;15.35;70.01
48386;BME280;34644;47.964;7.982;2023-02-20T02:39:03;97815.28;;;15.37;69.79
48386;BME280;34644;47.964;7.982;2023-02-20T02:46:54;97802.47;;;15.34;69.91
48386;BME280;34644;47.964;7.982;2023-02-20T02:53:27;97802.47;;;15.34;69.81
48386;BME280;34644;47.964;7.982;2023-02-20T03:00:33;97782.03;;;15.34;69.72
48386;BME280;34644;47.964;7.982;2023-02-20T03:07:35;97780.63;;;15.32;69.70
48386;BME280;34644;47.964;7.982;2023-02-20T03:22:07;97788.13;;;15.47;69.18
48386;BME280;34644;47.964;7.982;2023-02-20T03:29:14;97775.97;;;15.51;69.46
48386;BME280;34644;47.964;7.982;2023-02-20T03:36:19;97766.72;;;15.53;69.81
48386;BME280;34644;47.964;7.982;2023-02-20T03:43:41;97763.38;;;15.58;69.83
48386;BME280;34644;47.964;7.982;2023-02-20T03:50:43;97767.88;;;15.58;69.80
48386;BME280;34644;47.964;7.982;2023-02-20T03:57:48;97771.34;;;15.58;70.08
48386;BME280;34644;47.964;7.982;2023-02-20T04:04:50;97757.81;;;15.60;69.98
48386;BME280;34644;47.964;7.982;2023-02-20T04:11:53;97752.50;;;15.60;69.93
48386;BME280;34644;47.964;7.982;2023-02-20T04:18:56;97738.66;;;15.58;69.77
48386;BME280;34644;47.964;7.982;2023-02-20T04:26:01;97747.66;;;15.56;69.97
48386;BME280;34644;47.964;7.982;2023-02-20T04:33:08;97755.63;;;15.56;69.79
48386;BME280;34644;47.964;7.982;2023-02-20T04:40:10;97756.09;;;15.53;70.17
48386;BME280;34644;47.964;7.982;2023-02-20T04:47:12;97751.19;;;15.62;70.27
48386;BME280;34644;47.964;7.982;2023-02-20T04:54:13;97752.66;;;15.82;69.44
48386;BME280;34644;47.964;7.982;2023-02-20T05:01:14;97747.59;;;15.97;68.91
48386;BME280;34644;47.964;7.982;2023-02-20T05:08:15;97740.44;;;16.32;67.98
48386;BME280;34644;47.964;7.982;2023-02-20T05:15:15;97750.75;;;14.72;55.03
48386;BME280;34644;47.964;7.982;2023-02-20T05:22:15;97734.13;;;15.58;60.31
48386;BME280;34644;47.964;7.982;2023-02-20T05:29:19;97739.72;;;16.02;61.42
48386;BME280;34644;47.964;7.982;2023-02-20T05:36:19;97732.38;;;16.26;61.86
48386;BME280;34644;47.964;7.982;2023-02-20T05:43:19;97721.19;;;16.24;63.00
48386;BME280;34644;47.964;7.982;2023-02-20T05:50:20;97725.28;;;16.15;63.57
48386;BME280;34644;47.964;7.982;2023-02-20T05:57:22;97721.34;;;16.01;64.45
48386;BME280;34644;47.964;7.982;2023-02-20T06:04:26;97721.34;;;16.01;65.04
48386;BME280;34644;47.964;7.982;2023-02-20T06:11:27;97731.19;;;16.00;64.70
48386;BME280;34644;47.964;7.982;2023-02-20T06:18:27;97728.25;;;16.02;65.02
48386;BME280;34644;47.964;7.982;2023-02-20T06:25:27;97732.78;;;16.01;65.45
48386;BME280;34644;47.964;7.982;2023-02-20T06:32:28;97742.06;;;15.99;65.29
48386;BME280;34644;47.964;7.982;2023-02-20T06:39:29;97743.88;;;15.98;65.62
48386;BME280;34644;47.964;7.982;2023-02-20T06:46:29;97741.00;;;16.00;65.14
48386;BME280;34644;47.964;7.982;2023-02-20T06:53:29;97747.94;;;16.01;65.16
48386;BME280;34644;47.964;7.982;2023-02-20T07:00:30;97747.94;;;16.01;65.37
48386;BME280;34644;47.964;7.982;2023-02-20T07:07:30;97752.78;;;16.04;65.48
48386;BME280;34644;47.964;7.982;2023-02-20T07:14:30;97744.69;;;15.70;61.35
48386;BME280;34644;47.964;7.982;2023-02-20T07:21:30;97743.28;;;15.50;59.36
48386;BME280;34644;47.964;7.982;2023-02-20T07:28:32;97734.06;;;15.41;58.33
48386;BME280;34644;47.964;7.982;2023-02-20T07:35:33;97742.91;;;15.30;56.96
48386;BME280;34644;47.964;7.982;2023-02-20T07:42:38;97740.47;;;15.28;56.21
48386;BME280;34644;47.964;7.982;2023-02-20T07:49:54;97745.09;;;15.33;56.68
48386;BME280;34644;47.964;7.982;2023-02-20T07:56:54;97740.66;;;15.38;57.57
48386;BME280;34644;47.964;7.982;2023-02-20T08:04:03;97749.31;;;15.46;57.37
48386;BME280;34644;47.964;7.982;2023-02-20T08:11:42;97746.34;;;15.59;57.50
48386;BME280;34644;47.964;7.982;2023-02-20T08:18:42;97745.00;;;15.85;58.27
48386;BME280;34644;47.964;7.982;2023-02-20T08:25:42;97745.66;;;16.09;58.82
48386;BME280;34644;47.964;7.982;2023-02-20T08:32:42;97744.63;;;16.27;59.26
48386;BME280;34644;47.964;7.982;2023-02-20T08:39:43;97741.63;;;16.41;59.31
48386;BME280;34644;47.964;7.982;2023-02-20T08:46:47;97731.94;;;16.52;59.58
48386;BME280;34644;47.964;7.982;2023-02-20T08:53:47;97722.75;;;16.59;59.83
48386;BME280;34644;47.964;7.982;2023-02-20T09:00:48;97717.56;;;16.70;60.03
48386;BME280;34644;47.964;7.982;2023-02-20T09:07:48;97709.22;;;16.83;59.89
48386;BME280;34644;47.964;7.982;2023-02-20T09:14:49;97703.00;;;16.94;59.93
48386;BME280;34644;47.964;7.982;2023-02-20T09:21:50;97701.03;;;17.07;59.70
48386;BME280;34644;47.964;7.982;2023-02-20T09:28:50;97690.47;;;17.17;59.69
48386;BME280;34644;47.964;7.982;2023-02-20T09:35:50;97692.19;;;17.28;59.52
48386;BME280;34644;47.964;7.982;2023-02-20T09:50:17;97680.16;;;17.48;59.48
48386;BME280;34644;47.964;7.982;2023-02-20T09:57:22;97672.50;;;17.57;59.35
48386;BME280;34644;47.964;7.982;2023-02-20T10:04:27;97671.47;;;17.63;59.54
48386;BME280;34644;47.964;7.982;2023-02-20T10:12:04;97671.59;;;17.73;59.25
48386;BME280;34644;47.964;7.982;2023-02-20T10:25:57;97670.44;;;17.91;59.09
48386;BME280;34644;47.964;7.982;2023-02-20T10:40:30;97662.50;;;18.01;59.28
48386;BME280;34644;47.964;7.982;2023-02-20T10:55:39;97653.25;;;18.14;59.15
48386;BME280;34644;47.964;7.982;2023-02-20T11:02:05;97643.41;;;18.20;59.05
48386;BME280;34644;47.964;7.982;2023-02-20T11:09:11;97637.06;;;18.26;59.27
48386;BME280;34644;47.964;7.982;2023-02-20T11:17:12;97618.44;;;18.31;59.25
48386;BME280;34644;47.964;7.982;2023-02-20T11:23:42;97602.72;;;18.40;58.90
48386;BME280;34644;47.964;7.982;2023-02-20T11:30:43;97594.47;;;18.47;58.80
48386;BME280;34644;47.964;7.982;2023-02-20T11:37:48;97570.75;;;18.50;58.89
48386;BME280;34644;47.964;7.982;2023-02-20T11:52:11;97519.78;;;18.62;58.75
48386;BME280;34644;47.964;7.982;2023-02-20T11:59:34;97505.38;;;18.68;58.60
48386;BME280;34644;47.964;7.982;2023-02-20T12:13:40;97497.09;;;18.80;58.43
48386;BME280;34644;47.964;7.982;2023-02-20T12:20:44;97488.84;;;18.81;58.64
48386;BME280;34644;47.964;7.982;2023-02-20T12:35:02;97484.59;;;18.91;58.52
48386;BME280;34644;47.964;7.982;2023-02-20T13:03:45;97482.50;;;18.98;58.31
48386;BME280;34644;47.964;7.982;2023-02-20T13:10:55;97480.34;;;19.00;58.39
48386;BME280;34644;47.964;7.982;2023-02-20T13:32:32;97441.63;;;19.03;58.55
48386;BME280;34644;47.964;7.982;2023-02-20T13:39:38;97428.25;;;19.03;58.64
48386;BME280;34644;47.964;7.982;2023-02-20T13:53:59;97401.81;;;19.01;58.73
48386;BME280;34644;47.964;7.982;2023-02-20T14:01:02;97403.94;;;18.99;59.04
48386;BME280;34644;47.964;7.982;2023-02-20T14:08:03;97387.13;;;18.98;58.88
48386;BME280;34644;47.964;7.982;2023-02-20T14:15:04;97381.00;;;18.98;58.76
48386;BME280;34644;47.964;7.982;2023-02-20T14:29:25;97361.72;;;18.96;59.23
48386;BME280;34644;47.964;7.982;2023-02-20T14:44:29;97344.66;;;18.92;58.95
48386;BME280;34644;47.964;7.982;2023-02-20T14:51:30;97345.72;;;18.91;59.14
48386;BME280;34644;47.964;7.982;2023-02-20T14:58:31;97342.81;;;18.87;59.25
48386;BME280;34644;47.964;7.982;2023-02-20T15:05:34;97324.38;;;18.86;59.46
48386;BME280;34644;47.964;7.982;2023-02-20T15:12:36;97334.50;;;18.84;59.35
48386;BME280;34644;47.964;7.982;2023-02-20T15:19:39;97320.88;;;18.80;59.51
48386;BME280;34644;47.964;7.982;2023-02-20T15:26:39;97320.34;;;18.78;59.42
48386;BME280;34644;47.964;7.982;2023-02-20T15:33:41;97314.75;;;18.69;59.77
48386;BME280;34644;47.964;7.982;2023-02-20T15:40:41;97308.69;;;17.59;51.87
48386;BME280;34644;47.964;7.982;2023-02-20T15:47:42;97313.34;;;17.21;49.33
48386;BME280;34644;47.964;7.982;2023-02-20T15:54:44;97305.22;;;16.95;48.66
48386;BME280;34644;47.964;7.982;2023-02-20T16:01:47;97291.41;;;17.62;47.89
48386;BME280;34644;47.964;7.982;2023-02-20T16:08:47;97292.59;;;18.22;50.67
48386;BME280;34644;47.964;7.982;2023-02-20T16:15:49;97291.78;;;18.37;51.90
48386;BME280;34644;47.964;7.982;2023-02-20T16:22:50;97291.25;;;18.61;51.76
48386;BME280;34644;47.964;7.982;2023-02-20T16:29:51;97286.97;;;18.65;52.30
48386;BME280;34644;47.964;7.982;2023-02-20T16:36:51;97289.66;;;18.60;53.07
48386;BME280;34644;47.964;7.982;2023-02-20T16:43:52;97294.44;;;18.73;52.78
48386;BME280;34644;47.964;7.982;2023-02-20T16:50:52;97296.06;;;18.85;53.05
48386;BME280;34644;47.964;7.982;2023-02-20T16:57:53;97292.03;;;18.82;53.10
48386;BME280;34644;47.964;7.982;2023-02-20T17:04:54;97293.91;;;18.76;53.53
48386;BME280;34644;47.964;7.982;2023-02-20T17:11:54;97304.31;;;18.98;53.51
48386;BME280;34644;47.964;7.982;2023-02-20T17:18:54;97306.69;;;19.05;53.49
48386;BME280;34644;47.964;7.982;2023-02-20T17:25:55;97316.84;;;19.03;53.84
48386;BME280;34644;47.964;7.982;2023-02-20T17:32:56;97328.59;;;19.02;54.02
48386;BME280;34644;47.964;7.982;2023-02-20T17:39:56;97325.16;;;19.02;53.88
48386;BME280;34644;47.964;7.982;2023-02-20T17:46:57;97330.75;;;19.00;54.14
48386;BME280;34644;47.964;7.982;2023-02-20T17:53:58;97330.75;;;19.00;54.27
48386;BME280;34644;47.964;7.982;2023-02-20T18:00:58;97331.84;;;18.94;54.55
48386;BME280;34644;47.964;7.982;2023-02-20T18:07:58;97333.44;;;18.95;54.56
48386;BME280;34644;47.964;7.982;2023-02-20T18:15:01;97327.84;;;18.91;54.80
48386;BME280;34644;47.964;7.982;2023-02-20T18:22:02;97337.19;;;18.94;54.57
48386;BME280;34644;47.964;7.982;2023-02-20T18:29:02;97343.06;;;18.91;54.82
48386;BME280;34644;47.964;7.982;2023-02-20T18:36:03;97329.41;;;18.97;54.58
48386;BME280;34644;47.964;7.982;2023-02-20T18:43:03;97332.91;;;18.93;54.69
48386;BME280;34644;47.964;7.982;2023-02-20T18:50:04;97326.75;;;18.97;54.70
48386;BME280;34644;47.964;7.982;2023-02-20T18:57:04;97312.31;;;18.98;54.79
48386;BME280;34644;47.964;7.982;2023-02-20T19:04:04;97309.94;;;18.97;54.82
48386;BME280;34644;47.964;7.982;2023-02-20T19:11:05;97308.03;;;18.97;55.15
48386;BME280;34644;47.964;7.982;2023-02-20T19:18:05;97296.56;;;19.02;54.84
48386;BME280;34644;47.964;7.982;2023-02-20T19:25:05;97299.78;;;18.94;55.66
48386;BME280;34644;47.964;7.982;2023-02-20T19:32:06;97301.91;;;18.81;55.46
48386;BME280;34644;47.964;7.982;2023-02-20T19:39:06;97292.84;;;18.83;55.31
48386;BME280;34644;47.964;7.982;2023-02-20T19:46:17;97287.50;;;18.77;55.71
48386;BME280;34644;47.964;7.982;2023-02-20T19:53:18;97282.72;;;18.74;55.71
48386;BME280;34644;47.964;7.982;2023-02-20T20:00:19;97282.72;;;18.69;55.91
48386;BME280;34644;47.964;7.982;2023-02-20T20:07:21;97282.16;;;18.67;55.91
48386;BME280;34644;47.964;7.982;2023-02-20T20:14:22;97277.13;;;18.71;55.85
48386;BME280;34644;47.964;7.982;2023-02-20T20:21:23;97274.16;;;18.67;56.13
48386;BME280;34644;47.964;7.982;2023-02-20T20:28:23;97253.38;;;18.38;56.64
48386;BME280;34644;47.964;7.982;2023-02-20T20:35:24;97250.44;;;18.35;56.72
48386;BME280;34644;47.964;7.982;2023-02-20T20:42:26;97248.84;;;18.29;56.80
48386;BME280;34644;47.964;7.982;2023-02-20T20:49:27;97245.91;;;18.20;57.12
48386;BME280;34644;47.964;7.982;2023-02-20T20:56:27;97245.91;;;18.15;57.40
48386;BME280;34644;47.964;7.982;2023-02-20T21:03:27;97229.34;;;18.38;56.68
48386;BME280;34644;47.964;7.982;2023-02-20T21:10:28;97233.34;;;18.46;56.39
48386;BME280;34644;47.964;7.982;2023-02-20T21:17:28;97233.34;;;18.46;56.60
48386;BME280;34644;47.964;7.982;2023-02-20T21:24:28;97221.38;;;18.28;56.94
48386;BME280;34644;47.964;7.982;2023-02-20T21:31:29;97219.75;;;18.12;57.39
48386;BME280;34644;47.964;7.982;2023-02-20T21:38:29;97223.50;;;18.05;57.59
48386;BME280;34644;47.964;7.982;2023-02-20T21:45:29;97215.22;;;18.07;57.31
48386;BME280;34644;47.964;7.982;2023-02-20T21:52:30;97221.34;;;18.02;57.44
48386;BME280;34644;47.964;7.982;2023-02-20T21:59:35;97205.63;;;17.96;57.73
48386;BME280;34644;47.964;7.982;2023-02-20T22:06:36;97215.72;;;17.83;58.08
48386;BME280;34644;47.964;7.982;2023-02-20T22:13:36;97204.53;;;17.81;58.24
48386;BME280;34644;47.964;7.982;2023-02-20T22:20:55;97211.78;;;18.22;57.26
48386;BME280;34644;47.964;7.982;2023-02-20T22:28:14;97204.53;;;18.27;56.71
48386;BME280;34644;47.964;7.982;2023-02-20T22:35:33;97201.31;;;17.69;58.49
48386;BME280;34644;47.964;7.982;2023-02-20T22:42:52;97193.31;;;17.64;58.69
48386;BME280;34644;47.964;7.982;2023-02-20T22:50:12;97188.78;;;17.64;58.67
48386;BME280;34644;47.964;7.982;2023-02-20T22:57:31;97182.09;;;17.57;59.28
48386;BME280;34644;47.964;7.982;2023-02-20T23:04:50;97178.91;;;17.49;59.40
48386;BME280;34644;47.964;7.982;2023-02-20T23:12:11;97182.34;;;17.45;59.51
48386;BME280;34644;47.964;7.982;2023-02-20T23:19:30;97167.94;;;17.41;59.63
48386;BME280;34644;47.964;7.982;2023-02-20T23:26:49;97169.28;;;17.38;59.66
48386;BME280;34644;47.964;7.982;2023-02-20T23:34:08;97171.91;;;17.33;59.81
48386;BME280;34644;47.964;7.982;2023-02-20T23:41:27;97174.84;;;17.31;59.83
48386;BME280;34644;47.964;7.982;2023-02-20T23:48:46;97165.28;;;17.30;59.87
48386;BME280;34644;47.964;7.982;2023-02-20T23:56:04;97168.47;;;17.27;59.80
